Time;durP1;ratioP1;P1;durP2;ratioP2;P2;SDS_P1;SDS_P2;PMS_P1;PMS_P2;Temp;Humidity;BMP_temperature;BMP_pressure;BME280_temperature;BME280_humidity;BME280_pressure;Samples;Min_cycle;Max_cycle;Signal;HPM_P1;HPM_P2
2022/05/18 00:00:49;;;;;;;9.07;5.05;;;;;;;19.70;57.28;101765.94;5011441;28;20496;-60
2022/05/18 00:03:19;;;;;;;9.90;4.53;;;;;;;19.71;57.11;101764.78;5011971;28;20089;-60
2022/05/18 00:05:45;;;;;;;8.50;4.78;;;;;;;19.69;57.46;101767.06;5012657;28;20036;-61
2022/05/18 00:08:12;;;;;;;8.85;4.47;;;;;;;19.64;57.27;101769.06;5021595;28;20037;-59
2022/05/18 00:10:42;;;;;;;7.63;4.72;;;;;;;19.59;57.63;101772.72;5011184;28;20116;-59
2022/05/18 00:13:08;;;;;;;9.27;5.05;;;;;;;19.62;57.37;101769.38;5013616;28;20041;-59
2022/05/18 00:15:34;;;;;;;7.63;4.80;;;;;;;19.59;57.55;101769.91;5010794;28;20364;-60
2022/05/18 00:18:00;;;;;;;8.38;4.80;;;;;;;19.55;57.57;101777.25;5011914;28;20092;-60
2022/05/18 00:20:25;;;;;;;8.77;5.15;;;;;;;19.55;57.61;101774.44;5012965;28;20026;-61
2022/05/18 00:22:56;;;;;;;10.85;4.95;;;;;;;19.54;57.56;101772.78;5016902;28;20168;-61
2022/05/18 00:25:26;;;;;;;11.05;4.85;;;;;;;19.48;57.87;101773.91;5025299;28;20550;-61
2022/05/18 00:27:51;;;;;;;11.02;5.18;;;;;;;19.50;57.93;101774.47;5013633;28;20030;-61
2022/05/18 00:30:22;;;;;;;7.75;4.90;;;;;;;19.43;57.99;101783.25;5014960;28;20099;-61
2022/05/18 00:32:47;;;;;;;9.15;5.30;;;;;;;19.43;57.89;101777.63;5011363;28;20745;-61
2022/05/18 00:35:14;;;;;;;11.45;4.90;;;;;;;19.43;58.03;101777.63;5012756;28;20041;-61
2022/05/18 00:37:40;;;;;;;7.10;4.85;;;;;;;19.38;58.07;101781.31;5013487;28;20029;-61
2022/05/18 00:40:07;;;;;;;8.57;5.30;;;;;;;19.38;57.84;101780.47;5013014;28;20044;-61
2022/05/18 00:42:33;;;;;;;7.05;4.93;;;;;;;19.33;57.92;101770.03;5011732;28;20030;-61
2022/05/18 00:45:01;;;;;;;9.32;5.03;;;;;;;19.28;57.96;101775.72;5011498;28;20508;-61
2022/05/18 00:47:26;;;;;;;9.30;5.03;;;;;;;19.26;58.03;101777.16;5011062;28;20021;-60
2022/05/18 00:49:59;;;;;;;12.00;5.60;;;;;;;19.33;57.72;101783.28;5013034;28;20144;-60
2022/05/18 00:52:31;;;;;;;8.65;5.60;;;;;;;19.31;57.94;101777.13;5009642;28;20038;-60
2022/05/18 00:55:08;;;;;;;9.05;5.43;;;;;;;19.26;57.48;101780.81;5011426;28;20597;-61
2022/05/18 00:57:38;;;;;;;10.45;5.00;;;;;;;19.20;57.81;101779.13;5010102;28;20029;-61
2022/05/18 01:00:09;;;;;;;10.10;5.45;;;;;;;19.15;57.85;101772.69;5011512;28;20493;-61
2022/05/18 01:02:38;;;;;;;9.52;5.88;;;;;;;19.06;58.29;101767.69;5032833;28;20045;-61
2022/05/18 01:05:08;;;;;;;8.35;5.50;;;;;;;19.07;58.29;101772.16;5013565;28;20371;-61
2022/05/18 01:07:37;;;;;;;10.52;5.40;;;;;;;19.06;58.22;101773.31;5014311;28;20135;-61
2022/05/18 01:10:05;;;;;;;9.55;5.22;;;;;;;19.03;58.38;101778.66;5010472;28;20575;-61
2022/05/18 01:12:31;;;;;;;9.98;5.80;;;;;;;19.05;58.35;101782.00;5009192;28;20041;-62
2022/05/18 01:15:05;;;;;;;9.05;5.72;;;;;;;18.97;58.40;101783.44;5010223;28;20037;-61
2022/05/18 01:17:34;;;;;;;9.43;5.63;;;;;;;18.99;58.46;101781.22;5011086;28;20034;-60
2022/05/18 01:20:02;;;;;;;11.32;6.38;;;;;;;18.97;58.43;101774.16;5009666;28;20033;-61
2022/05/18 01:22:48;;;;;;;9.65;5.57;;;;;;;18.94;58.34;101771.94;5011233;28;20022;-61
2022/05/18 01:25:32;;;;;;;8.27;5.85;;;;;;;18.94;58.40;101774.75;5012354;28;20045;-61
2022/05/18 01:27:59;;;;;;;11.05;5.55;;;;;;;18.81;58.84;101777.03;5012452;28;20038;-61
2022/05/18 01:30:25;;;;;;;9.95;5.88;;;;;;;18.77;58.96;101781.56;5010343;28;20506;-61
2022/05/18 01:32:53;;;;;;;10.13;5.78;;;;;;;18.75;58.85;101763.28;5006104;28;20076;-60
2022/05/18 01:35:23;;;;;;;9.15;6.03;;;;;;;18.78;59.02;101771.97;5013476;28;20083;-61
2022/05/18 01:37:48;;;;;;;10.98;6.20;;;;;;;18.79;59.01;101772.84;5012967;28;20033;-61
2022/05/18 01:40:38;;;;;;;16.25;6.65;;;;;;;18.73;58.96;101776.78;5009255;28;20678;-61
2022/05/18 01:43:34;;;;;;;10.50;5.45;;;;;;;18.80;58.51;101785.78;5011551;28;20084;-60
2022/05/18 01:46:03;;;;;;;13.48;6.00;;;;;;;18.68;59.39;101783.25;5009499;28;20621;-60
2022/05/18 01:48:33;;;;;;;8.95;6.13;;;;;;;18.65;59.33;101778.19;5010098;28;20041;-61
2022/05/18 01:51:03;;;;;;;12.57;6.13;;;;;;;18.65;59.35;101772.56;5010049;28;20037;-60
2022/05/18 01:53:30;;;;;;;11.43;6.13;;;;;;;18.66;59.27;101774.22;5010992;28;20132;-61
2022/05/18 01:55:55;;;;;;;9.13;6.13;;;;;;;18.70;59.47;101775.38;5008865;28;20038;-61
2022/05/18 01:58:21;;;;;;;11.05;5.78;;;;;;;18.69;59.63;101772.84;5010287;28;20030;-61
2022/05/18 02:00:47;;;;;;;9.15;6.07;;;;;;;18.56;59.76;101769.50;5010031;28;20049;-60
2022/05/18 02:03:13;;;;;;;9.75;6.40;;;;;;;18.58;60.00;101772.00;5011360;28;20026;-60
2022/05/18 02:05:39;;;;;;;14.70;6.72;;;;;;;18.57;60.03;101776.78;5011121;28;20022;-60
2022/05/18 02:08:04;;;;;;;10.48;6.80;;;;;;;18.57;60.64;101775.94;5010266;28;20056;-60
2022/05/18 02:10:30;;;;;;;12.38;6.80;;;;;;;18.57;60.39;101782.41;5016312;28;20045;-61
2022/05/18 02:12:55;;;;;;;10.00;6.95;;;;;;;18.56;60.24;101779.91;4993260;28;20143;-60
2022/05/18 02:15:23;;;;;;;12.48;6.57;;;;;;;18.55;60.21;101775.38;5010462;28;20021;-61
2022/05/18 02:17:50;;;;;;;12.55;6.93;;;;;;;18.53;60.51;101772.03;5012262;28;20057;-61
2022/05/18 02:20:15;;;;;;;10.57;7.47;;;;;;;18.49;60.55;101768.94;5008589;28;20044;-61
2022/05/18 02:22:41;;;;;;;11.55;7.00;;;;;;;18.50;60.35;101772.59;5010494;28;20034;-60
2022/05/18 02:25:07;;;;;;;10.95;6.88;;;;;;;18.49;60.31;101776.53;5017808;28;20119;-61
2022/05/18 02:27:35;;;;;;;12.73;7.05;;;;;;;18.47;60.67;101770.34;5013298;28;20131;-60
2022/05/18 02:30:02;;;;;;;9.07;7.45;;;;;;;18.46;60.70;101760.22;5009038;28;20044;-61
2022/05/18 02:32:27;;;;;;;11.15;7.05;;;;;;;18.42;60.59;101754.31;5011086;28;20033;-60
2022/05/18 02:34:52;;;;;;;12.27;7.45;;;;;;;18.42;60.74;101764.72;5009973;28;20034;-60
2022/05/18 02:37:18;;;;;;;11.98;7.60;;;;;;;18.40;60.80;101765.88;5010218;28;20053;-59
2022/05/18 02:39:44;;;;;;;11.20;7.80;;;;;;;18.40;60.72;101762.22;5010531;28;20034;-60
2022/05/18 02:42:09;;;;;;;13.15;7.80;;;;;;;18.37;60.87;101769.25;5012043;28;20027;-60
2022/05/18 02:44:34;;;;;;;11.50;7.70;;;;;;;18.41;60.92;101766.72;5008705;28;20026;-60
2022/05/18 02:47:00;;;;;;;10.40;7.68;;;;;;;18.42;60.92;101770.34;5009523;28;20033;-60
2022/05/18 02:49:26;;;;;;;13.05;8.25;;;;;;;18.34;61.12;101771.78;5011044;28;20030;-60
2022/05/18 02:51:55;;;;;;;13.30;8.73;;;;;;;18.36;60.99;101770.38;5008098;28;20386;-61
2022/05/18 02:57:08;;;;;;;10.88;7.97;;;;;;;18.39;61.10;101763.31;5009825;28;20041;-61
2022/05/18 02:59:34;;;;;;;10.27;8.68;;;;;;;18.33;61.32;101770.94;5007904;28;20037;-60
2022/05/18 03:02:00;;;;;;;12.25;8.57;;;;;;;18.30;61.63;101773.47;5010233;28;20456;-60
2022/05/18 03:04:26;;;;;;;10.50;8.27;;;;;;;18.25;61.26;101774.31;5009193;28;20117;-61
2022/05/18 03:06:52;;;;;;;12.00;8.25;;;;;;;18.27;61.42;101782.44;5010641;28;20042;-60
2022/05/18 03:09:18;;;;;;;14.68;8.13;;;;;;;18.29;61.13;101781.06;5010994;28;20030;-60
2022/05/18 03:11:44;;;;;;;14.18;9.27;;;;;;;18.21;61.41;101787.25;5013550;28;20671;-60
2022/05/18 03:14:09;;;;;;;12.45;8.75;;;;;;;18.21;61.48;101784.44;5014028;28;20030;-60
2022/05/18 03:16:37;;;;;;;13.43;8.57;;;;;;;18.24;61.53;101789.50;5015122;28;20030;-60
2022/05/18 03:19:03;;;;;;;13.50;8.77;;;;;;;18.24;61.68;101795.13;5013070;28;20113;-61
2022/05/18 03:24:12;;;;;;;11.75;9.00;;;;;;;18.26;61.48;101798.47;5013753;28;20444;-60
2022/05/18 03:26:37;;;;;;;12.05;8.75;;;;;;;18.20;61.85;101807.22;5013421;28;20121;-60
2022/05/18 03:29:02;;;;;;;13.90;8.27;;;;;;;18.29;61.61;101809.16;5014433;28;20037;-60
2022/05/18 03:31:28;;;;;;;15.93;9.23;;;;;;;18.26;62.02;101789.22;5014005;28;20484;-60
2022/05/18 03:33:58;;;;;;;15.55;8.93;;;;;;;18.25;61.85;101802.41;5012484;28;20054;-61
2022/05/18 03:36:23;;;;;;;10.13;8.73;;;;;;;18.33;61.85;101806.63;5014252;28;20050;-60
2022/05/18 03:38:50;;;;;;;11.25;8.50;;;;;;;18.36;61.82;101811.69;5014764;28;20126;-61
2022/05/18 03:41:16;;;;;;;11.32;8.52;;;;;;;18.36;61.95;101806.91;5023671;28;20029;-61
2022/05/18 03:43:41;;;;;;;13.02;8.85;;;;;;;18.30;62.05;101804.38;5021621;28;20057;-60
2022/05/18 03:46:07;;;;;;;9.70;8.13;;;;;;;18.35;61.92;101818.41;5013268;28;20791;-61
2022/05/18 03:48:36;;;;;;;13.45;8.27;;;;;;;18.31;62.29;101818.16;5013850;28;20076;-61
2022/05/18 03:51:04;;;;;;;13.10;8.13;;;;;;;18.32;61.83;101825.47;5011407;28;20034;-60
2022/05/18 03:53:30;;;;;;;16.50;8.82;;;;;;;18.34;62.11;101823.19;5010675;28;20034;-60
2022/05/18 03:55:55;;;;;;;13.07;8.27;;;;;;;18.39;61.86;101826.03;5014335;28;20389;-60
2022/05/18 03:58:21;;;;;;;9.23;8.25;;;;;;;18.38;62.05;101817.88;5013719;28;20037;-60
2022/05/18 04:00:49;;;;;;;14.52;8.88;;;;;;;18.47;61.47;101807.75;5024048;28;20069;-61
2022/05/18 04:03:16;;;;;;;11.55;8.68;;;;;;;18.41;61.57;101817.31;5012933;28;20034;-61
2022/05/18 04:05:42;;;;;;;12.02;8.27;;;;;;;18.47;61.39;101798.44;5012851;28;20107;-61
2022/05/18 04:08:09;;;;;;;10.60;8.27;;;;;;;18.49;61.60;101802.66;5011184;28;20022;-61
2022/05/18 04:10:35;;;;;;;12.60;8.27;;;;;;;18.54;61.20;101807.44;5013464;28;20374;-61
2022/05/18 04:13:00;;;;;;;9.88;7.72;;;;;;;18.67;60.83;101803.19;5013057;28;20041;-61
2022/05/18 04:15:28;;;;;;;10.98;7.60;;;;;;;18.65;60.89;101803.47;5012899;28;19966;-61
2022/05/18 04:17:53;;;;;;;8.63;6.93;;;;;;;18.64;60.80;101799.84;5011366;28;20044;-61
2022/05/18 04:20:22;;;;;;;10.98;7.57;;;;;;;18.69;60.54;101803.75;5016904;28;20033;-61
2022/05/18 04:22:49;;;;;;;12.18;7.75;;;;;;;18.72;60.78;101817.28;5012722;28;20482;-60
2022/05/18 04:25:20;;;;;;;10.93;6.40;;;;;;;18.77;60.24;101820.94;5011171;28;20052;-60
2022/05/18 04:27:49;;;;;;;10.57;7.72;;;;;;;18.85;60.14;101822.31;5012834;28;20030;-61
2022/05/18 04:30:15;;;;;;;10.07;7.07;;;;;;;18.85;59.91;101817.53;5009311;28;20495;-60
2022/05/18 04:32:44;;;;;;;8.90;6.68;;;;;;;18.90;59.88;101819.47;4994392;28;20030;-60
2022/05/18 04:35:14;;;;;;;9.43;6.35;;;;;;;18.89;59.98;101820.63;5004978;28;20042;-61
2022/05/18 04:37:40;;;;;;;7.38;6.68;;;;;;;18.95;59.54;101827.09;5024691;28;20033;-61
2022/05/18 04:40:07;;;;;;;10.05;6.47;;;;;;;18.95;59.70;101829.91;5013437;28;20038;-60
2022/05/18 04:42:33;;;;;;;11.07;6.57;;;;;;;19.05;59.17;101829.84;5010698;28;20536;-60
2022/05/18 04:44:58;;;;;;;8.27;5.75;;;;;;;19.03;59.21;101835.78;5010994;28;20120;-60
2022/05/18 04:47:24;;;;;;;8.77;5.90;;;;;;;19.04;59.30;101843.06;5012439;28;20038;-61
2022/05/18 04:49:51;;;;;;;8.43;5.85;;;;;;;19.10;58.97;101841.09;5012089;28;20038;-61
2022/05/18 04:52:17;;;;;;;11.32;6.55;;;;;;;19.12;58.91;101839.66;5012063;28;20025;-61
2022/05/18 04:54:45;;;;;;;10.02;5.88;;;;;;;19.17;58.88;101840.78;5007675;28;20426;-61
2022/05/18 04:57:10;;;;;;;8.65;5.22;;;;;;;19.20;58.53;101851.47;5017906;28;20038;-60
2022/05/18 04:59:36;;;;;;;9.50;5.35;;;;;;;19.23;58.46;101851.75;5020402;28;20032;-60
2022/05/18 05:02:02;;;;;;;7.88;5.63;;;;;;;19.23;58.45;101846.13;5007511;28;20537;-60
2022/05/18 05:04:27;;;;;;;9.40;5.43;;;;;;;19.23;58.52;101848.94;5012248;28;20057;-61
2022/05/18 05:06:53;;;;;;;8.00;5.07;;;;;;;19.26;58.20;101855.97;5011901;28;20035;-61
2022/05/18 05:09:22;;;;;;;9.18;5.35;;;;;;;19.32;58.11;101861.28;5012478;28;20126;-60
2022/05/18 05:11:47;;;;;;;8.60;5.70;;;;;;;19.32;58.26;101852.81;5010457;28;20029;-61
2022/05/18 05:14:13;;;;;;;7.45;5.20;;;;;;;19.40;57.94;101870.25;5011963;28;20117;-61
2022/05/18 05:16:38;;;;;;;8.73;5.07;;;;;;;19.43;57.94;101864.06;5010323;28;20050;-61
2022/05/18 05:19:03;;;;;;;6.82;5.50;;;;;;;19.39;58.38;101860.97;5012415;28;20030;-61
2022/05/18 05:21:32;;;;;;;10.00;5.70;;;;;;;19.45;58.16;101867.41;5012663;28;20046;-61
2022/05/18 05:23:57;;;;;;;9.32;5.30;;;;;;;19.49;57.64;101874.16;5012430;28;20389;-60
2022/05/18 05:26:25;;;;;;;10.75;5.70;;;;;;;19.48;57.77;101880.91;5009810;28;20045;-60
2022/05/18 05:28:50;;;;;;;5.63;5.10;;;;;;;19.52;57.53;101876.38;5010992;28;20041;-62
2022/05/18 05:31:16;;;;;;;6.47;5.88;;;;;;;19.56;57.41;101875.53;5004947;28;20026;-61
2022/05/18 05:33:42;;;;;;;6.15;5.35;;;;;;;19.59;57.42;101874.09;4994710;28;20499;-61
2022/05/18 05:36:11;;;;;;;9.43;5.00;;;;;;;19.61;57.74;101877.50;5022906;28;20053;-61
2022/05/18 05:38:37;;;;;;;6.88;5.35;;;;;;;19.67;57.63;101872.69;5008191;28;20037;-62
2022/05/18 05:41:03;;;;;;;6.90;4.82;;;;;;;19.71;57.46;101883.09;5010708;28;20728;-60
2022/05/18 05:43:32;;;;;;;9.98;5.25;;;;;;;19.70;57.93;101884.22;5019047;28;20034;-60
2022/05/18 05:46:06;;;;;;;7.65;5.30;;;;;;;19.71;57.49;101888.72;5016757;28;20769;-61
2022/05/18 05:48:34;;;;;;;5.68;5.00;;;;;;;19.81;57.46;101880.22;5009942;28;20042;-60
2022/05/18 05:51:01;;;;;;;9.25;4.93;;;;;;;19.89;57.31;101886.38;5012236;28;20025;-61
2022/05/18 05:53:32;;;;;;;8.38;5.07;;;;;;;20.00;57.24;101893.63;5008814;28;20034;-62
2022/05/18 05:56:03;;;;;;;11.48;5.28;;;;;;;20.06;57.04;101906.56;5008047;28;20045;-61
2022/05/18 05:58:33;;;;;;;6.38;4.22;;;;;;;20.17;56.49;101911.00;5011770;28;20029;-60
2022/05/18 06:00:58;;;;;;;7.47;4.60;;;;;;;20.24;56.38;101907.84;5011395;28;20428;-61
2022/05/18 06:03:25;;;;;;;9.05;5.10;;;;;;;20.36;56.79;101908.34;5009977;28;20025;-61
2022/05/18 06:05:51;;;;;;;7.88;5.07;;;;;;;20.42;56.77;101903.47;5012118;28;20028;-61
2022/05/18 06:08:16;;;;;;;14.35;5.32;;;;;;;20.41;56.37;101905.47;5009793;28;20778;-61
2022/05/18 06:10:41;;;;;;;10.32;4.80;;;;;;;20.43;56.56;101899.53;5010409;28;20030;-61
2022/05/18 06:13:09;;;;;;;9.85;4.70;;;;;;;20.39;56.15;101907.72;5010185;28;20533;-61
2022/05/18 06:15:35;;;;;;;8.80;4.88;;;;;;;20.37;56.51;101907.19;5010914;28;20497;-60
2022/05/18 06:18:00;;;;;;;13.05;4.90;;;;;;;20.34;56.43;101910.59;5010556;28;20072;-60
2022/05/18 06:20:26;;;;;;;8.52;4.70;;;;;;;20.34;56.26;101913.41;5009871;28;20504;-61
2022/05/18 06:22:51;;;;;;;7.85;4.60;;;;;;;20.34;56.78;101919.03;5010046;28;20382;-61
2022/05/18 06:25:19;;;;;;;13.02;4.38;;;;;;;20.35;55.75;101923.53;5007281;28;20132;-61
2022/05/18 06:27:45;;;;;;;12.40;4.60;;;;;;;20.36;56.22;101936.53;5002875;28;20363;-61
2022/05/18 06:30:15;;;;;;;7.28;4.60;;;;;;;20.35;56.55;101934.81;5009296;28;20029;-61
2022/05/18 06:32:40;;;;;;;11.88;4.93;;;;;;;20.33;55.86;101932.31;5009869;28;20076;-61
2022/05/18 06:35:06;;;;;;;8.63;4.80;;;;;;;20.33;56.03;101937.94;5004772;28;20897;-61
2022/05/18 06:37:31;;;;;;;12.30;5.25;;;;;;;20.31;55.77;101934.56;5011354;28;20042;-61
2022/05/18 06:39:56;;;;;;;8.13;4.60;;;;;;;20.35;56.15;101940.47;5009860;28;20056;-61
2022/05/18 06:42:22;;;;;;;8.60;4.50;;;;;;;20.41;55.13;101944.09;5010274;28;20482;-62
2022/05/18 06:44:47;;;;;;;6.68;3.33;;;;;;;20.48;56.13;101941.81;5009117;28;20041;-61
2022/05/18 06:47:16;;;;;;;6.70;4.35;;;;;;;20.51;56.40;101946.88;5010167;28;20026;-62
2022/05/18 06:49:41;;;;;;;4.88;3.45;;;;;;;20.64;56.24;101936.91;5008553;28;21561;-62
2022/05/18 06:52:09;;;;;;;5.35;3.38;;;;;;;20.65;55.98;101950.72;5009370;28;20128;-63
2022/05/18 06:54:34;;;;;;;5.75;3.40;;;;;;;20.68;55.92;101944.50;5012230;28;20507;-63
2022/05/18 06:57:00;;;;;;;5.72;3.40;;;;;;;20.77;55.78;101956.81;5010363;28;20022;-63
2022/05/18 06:59:28;;;;;;;11.68;4.22;;;;;;;20.80;55.64;101958.22;5012061;28;20025;-63
2022/05/18 07:01:53;;;;;;;6.65;3.28;;;;;;;20.80;54.28;101949.75;5009942;28;20034;-62
2022/05/18 07:04:18;;;;;;;10.07;4.85;;;;;;;20.78;54.99;101964.13;5007170;28;20037;-62
2022/05/18 07:06:45;;;;;;;11.48;4.70;;;;;;;20.84;55.28;101968.59;5011182;28;20065;-61
2022/05/18 07:09:17;;;;;;;11.40;4.38;;;;;;;20.93;55.19;101976.44;4992536;28;20540;-61
2022/05/18 07:11:43;;;;;;;8.00;4.70;;;;;;;21.06;54.95;101967.28;5010310;28;20030;-61
2022/05/18 07:14:09;;;;;;;9.80;4.97;;;;;;;21.24;54.68;101975.00;5013429;28;20437;-63
2022/05/18 07:16:35;;;;;;;10.90;6.32;;;;;;;21.23;54.33;101973.31;5011404;28;20026;-61
2022/05/18 07:19:00;;;;;;;10.30;4.97;;;;;;;21.25;54.32;101973.84;5012779;28;20022;-61
2022/05/18 07:21:26;;;;;;;11.15;5.55;;;;;;;21.25;54.49;101970.19;5014941;28;20083;-61
2022/05/18 07:23:53;;;;;;;8.82;5.80;;;;;;;21.26;54.54;101971.88;5013936;28;20037;-61
2022/05/18 07:26:20;;;;;;;14.30;9.65;;;;;;;21.17;55.35;101977.31;5008330;28;20033;-61
2022/05/18 07:28:46;;;;;;;7.82;5.75;;;;;;;21.28;54.88;101980.91;5012720;28;20034;-63
2022/05/18 07:31:12;;;;;;;12.13;6.03;;;;;;;21.24;55.09;101986.28;5008455;28;20030;-61
2022/05/18 07:33:40;;;;;;;8.10;6.00;;;;;;;21.28;55.29;101987.38;5009824;28;20082;-65
2022/05/18 07:36:06;;;;;;;14.88;7.47;;;;;;;21.24;55.85;101977.81;5011436;28;20045;-62
2022/05/18 07:38:33;;;;;;;13.10;7.63;;;;;;;21.23;55.85;101984.63;5008960;28;20026;-63
2022/05/18 07:41:01;;;;;;;11.15;9.13;;;;;;;21.21;56.69;101988.88;5003459;28;20133;-64
2022/05/18 07:43:32;;;;;;;14.10;8.38;;;;;;;21.16;56.63;101980.47;5012216;28;20584;-64
2022/05/18 07:45:58;;;;;;;10.40;6.65;;;;;;;21.24;55.96;101979.81;5012818;28;20058;-63
2022/05/18 07:48:26;;;;;;;9.85;5.80;;;;;;;21.32;55.68;101993.28;5009952;28;20057;-63
2022/05/18 07:50:52;;;;;;;12.38;7.03;;;;;;;21.38;56.41;101991.25;5012501;28;20474;-64
2022/05/18 07:53:18;;;;;;;15.07;9.10;;;;;;;21.40;56.77;101989.00;5012026;28;20052;-64
2022/05/18 07:55:44;;;;;;;15.45;9.73;;;;;;;21.46;57.15;101996.28;5011603;28;20037;-62
2022/05/18 07:58:15;;;;;;;7.47;5.47;;;;;;;21.65;55.89;101993.50;5013766;28;20034;-61
2022/05/18 08:00:44;;;;;;;12.82;7.78;;;;;;;21.69;56.21;101992.63;5012167;28;20100;-61
2022/05/18 08:03:10;;;;;;;11.60;6.38;;;;;;;21.81;55.30;101995.00;5010741;28;20521;-62
2022/05/18 08:05:43;;;;;;;10.75;7.90;;;;;;;21.85;55.65;102004.59;5009990;28;20064;-62
2022/05/18 08:08:15;;;;;;;10.45;7.00;;;;;;;21.90;55.07;102007.34;5010126;28;20069;-62
2022/05/18 08:16:10;;;;;;;13.43;8.77;;;;;;;22.03;55.91;102003.78;5014536;28;20111;-62
2022/05/18 08:18:35;;;;;;;17.73;10.95;;;;;;;22.03;56.08;101998.13;5014193;28;20382;-62
2022/05/18 08:21:04;;;;;;;10.45;7.35;;;;;;;22.20;55.08;101993.97;5010891;28;20026;-62
2022/05/18 08:23:29;;;;;;;19.17;8.93;;;;;;;22.34;55.69;101997.72;5005011;28;20076;-62
2022/05/18 08:25:56;;;;;;;14.65;9.52;;;;;;;22.46;55.81;101998.13;5011105;28;20121;-62
2022/05/18 08:28:23;;;;;;;16.20;10.07;;;;;;;22.55;56.28;102006.75;5013077;28;20080;-62
2022/05/18 08:30:48;;;;;;;16.15;10.13;;;;;;;22.67;55.69;102000.63;5009238;28;20069;-62
2022/05/18 08:33:16;;;;;;;17.35;10.43;;;;;;;22.75;56.04;101999.91;5013492;28;20030;-63
2022/05/18 08:35:44;;;;;;;21.27;11.40;;;;;;;22.84;55.19;102005.75;5011633;28;20052;-62
2022/05/18 08:38:10;;;;;;;17.10;10.20;;;;;;;22.94;55.83;102014.09;5014033;28;20478;-62
2022/05/18 08:40:43;;;;;;;14.82;9.55;;;;;;;23.02;55.32;102007.72;5010393;28;20043;-62
2022/05/18 08:43:12;;;;;;;16.08;9.70;;;;;;;23.05;55.04;102018.44;4997514;28;20029;-62
2022/05/18 08:45:48;;;;;;;15.80;9.00;;;;;;;23.17;54.68;102021.59;5010008;28;20040;-62
2022/05/18 08:48:13;;;;;;;13.55;7.90;;;;;;;23.27;54.67;102020.59;5006122;28;20034;-63
2022/05/18 08:50:39;;;;;;;33.17;9.67;;;;;;;23.32;55.16;102016.84;5008921;28;20053;-62
2022/05/18 08:53:18;;;;;;;11.35;8.57;;;;;;;23.40;54.02;102018.94;5007540;28;20299;-63
2022/05/18 08:56:09;;;;;;;13.88;7.63;;;;;;;23.45;54.14;102010.34;5005203;28;20038;-62
2022/05/18 08:58:43;;;;;;;11.30;7.28;;;;;;;23.51;53.37;102021.28;5021231;28;20484;-63
2022/05/18 09:01:36;;;;;;;12.07;7.43;;;;;;;23.59;53.59;102016.88;5005597;28;20057;-61
2022/05/18 09:04:08;;;;;;;9.38;6.50;;;;;;;23.69;53.34;102013.03;4995523;28;20037;-62
2022/05/18 09:06:42;;;;;;;12.95;7.57;;;;;;;23.73;53.35;102019.75;5005860;28;20496;-62
2022/05/18 09:11:54;;;;;;;15.07;8.45;;;;;;;23.80;53.29;102020.16;4992867;28;20045;-61
2022/05/18 09:14:22;;;;;;;14.18;8.05;;;;;;;23.80;52.92;102023.00;4993242;28;20030;-62
2022/05/18 09:17:03;;;;;;;13.23;7.40;;;;;;;23.91;52.49;102017.97;4992234;28;20081;-62
2022/05/18 09:20:04;;;;;;;11.38;6.68;;;;;;;23.96;53.08;102010.19;5006293;28;20037;-62
2022/05/18 09:22:54;;;;;;;10.23;6.15;;;;;;;23.98;52.40;102009.88;4999263;28;20390;-62
2022/05/18 09:25:38;;;;;;;10.10;5.88;;;;;;;23.91;52.15;102021.63;4992559;28;20057;-62
2022/05/18 09:28:17;;;;;;;8.18;5.15;;;;;;;23.91;52.17;102018.81;4993345;28;20034;-62
2022/05/18 09:31:13;;;;;;;8.43;5.50;;;;;;;23.91;52.23;102020.81;4991799;28;20093;-62
2022/05/18 09:33:59;;;;;;;10.90;6.00;;;;;;;23.86;52.50;102016.09;5011084;28;20076;-62
2022/05/18 09:36:56;;;;;;;9.00;5.47;;;;;;;23.98;52.31;102018.41;5031320;28;20481;-62
2022/05/18 09:39:26;;;;;;;7.88;4.68;;;;;;;24.09;51.61;102014.19;5030844;28;20400;-62
2022/05/18 09:41:59;;;;;;;7.22;3.60;;;;;;;24.15;50.06;102003.56;5031994;28;20469;-62
2022/05/18 09:44:49;;;;;;;8.85;2.80;;;;;;;24.18;50.76;102014.28;5032146;28;20041;-64
2022/05/18 09:47:18;;;;;;;7.30;2.95;;;;;;;24.16;50.05;102014.56;5032028;28;20125;-63
2022/05/18 09:49:50;;;;;;;7.05;3.83;;;;;;;24.17;50.78;102010.59;5031403;28;20524;-62
2022/05/18 09:52:24;;;;;;;7.65;4.18;;;;;;;24.17;50.95;102010.59;5031208;28;20087;-63
2022/05/18 09:54:53;;;;;;;7.78;3.75;;;;;;;24.28;51.24;102004.69;5028015;28;20112;-62
2022/05/18 09:57:31;;;;;;;6.82;3.80;;;;;;;24.36;50.74;102009.59;5009050;28;20112;-62
2022/05/18 10:00:00;;;;;;;8.13;3.50;;;;;;;24.49;50.97;102011.63;5008192;28;20482;-62
2022/05/18 10:08:22;;;;;;;7.18;3.65;;;;;;;24.74;50.38;102022.34;5011197;28;20038;-62
2022/05/18 10:10:54;;;;;;;4.93;2.95;;;;;;;24.76;50.30;102022.03;5011241;28;20030;-61
2022/05/18 10:13:25;;;;;;;5.10;3.08;;;;;;;24.77;49.40;102020.88;5007938;28;20069;-61
2022/05/18 10:16:05;;;;;;;5.95;2.80;;;;;;;24.83;49.49;102018.75;5009749;28;20120;-62
2022/05/18 10:18:41;;;;;;;9.00;3.22;;;;;;;24.82;48.53;102015.06;5003866;28;20022;-61
2022/05/18 10:21:09;;;;;;;5.80;2.53;;;;;;;24.94;49.45;102021.00;5004718;28;20041;-61
2022/05/18 10:24:06;;;;;;;3.92;2.20;;;;;;;24.94;49.08;102003.13;5009198;28;20128;-62
2022/05/18 10:26:35;;;;;;;10.30;2.10;;;;;;;25.00;47.09;102012.38;5008676;28;20050;-61
2022/05/18 10:29:20;;;;;;;4.20;2.00;;;;;;;25.01;47.07;102012.03;5007107;28;20034;-61
2022/05/18 10:32:02;;;;;;;3.58;1.70;;;;;;;25.05;47.85;102015.91;5011064;28;20088;-62
2022/05/18 10:34:39;;;;;;;4.50;1.90;;;;;;;25.11;47.39;102010.94;5015873;28;20088;-62
2022/05/18 10:37:12;;;;;;;4.18;2.60;;;;;;;25.23;47.26;102011.22;5010812;28;20068;-62
2022/05/18 10:39:41;;;;;;;6.40;2.67;;;;;;;25.27;46.86;102014.22;5009586;28;20018;-62
2022/05/18 10:42:20;;;;;;;3.28;2.03;;;;;;;25.33;46.37;102010.09;5010356;28;20104;-61
2022/05/18 10:44:46;;;;;;;6.45;2.40;;;;;;;25.43;46.09;102004.16;5011621;28;20061;-62
2022/05/18 10:47:14;;;;;;;5.82;2.70;;;;;;;25.45;45.96;102001.81;5009238;28;20026;-62
2022/05/18 10:49:40;;;;;;;7.93;2.63;;;;;;;25.51;47.05;102003.34;5008937;28;20117;-62
2022/05/18 10:52:18;;;;;;;4.82;2.90;;;;;;;25.58;46.58;101995.16;5006324;28;20120;-63
2022/05/18 10:54:59;;;;;;;5.35;3.10;;;;;;;25.58;46.56;101992.31;5008317;28;20492;-62
2022/05/18 10:57:36;;;;;;;5.82;3.10;;;;;;;25.69;46.38;101995.72;5005480;28;20029;-61
2022/05/18 11:00:11;;;;;;;7.13;3.35;;;;;;;25.65;46.41;101994.69;5009881;28;20037;-61
2022/05/18 11:02:47;;;;;;;5.60;3.03;;;;;;;25.75;46.48;102002.94;5007833;28;20029;-61
2022/05/18 11:05:19;;;;;;;6.20;2.97;;;;;;;25.69;45.96;101996.56;5000053;28;20030;-63
2022/05/18 11:07:45;;;;;;;6.05;3.33;;;;;;;25.73;46.19;101993.06;5011680;28;20045;-63
2022/05/18 11:10:11;;;;;;;4.43;2.95;;;;;;;25.70;46.41;101994.53;5010387;28;20505;-62
2022/05/18 11:12:46;;;;;;;7.25;2.78;;;;;;;25.76;46.52;101989.56;5010205;28;20034;-62
2022/05/18 11:15:51;;;;;;;18.92;4.00;;;;;;;25.76;46.95;101981.88;4991024;28;20393;-62
2022/05/18 11:18:44;;;;;;;10.02;4.40;;;;;;;25.84;46.00;101983.94;5007329;28;20050;-61
2022/05/18 11:21:49;;;;;;;12.07;3.38;;;;;;;25.98;46.61;101978.13;4992487;28;20042;-62
2022/05/18 11:24:34;;;;;;;6.00;3.92;;;;;;;26.00;46.13;101983.47;5006123;28;20053;-61
2022/05/18 11:27:17;;;;;;;12.05;3.65;;;;;;;26.02;46.39;101984.84;5010049;28;20045;-62
2022/05/18 11:30:04;;;;;;;10.13;3.38;;;;;;;26.15;46.08;101989.53;5002661;28;20056;-62
2022/05/18 11:32:53;;;;;;;8.70;4.18;;;;;;;26.21;45.78;101990.22;5012733;28;20108;-63
2022/05/18 11:35:56;;;;;;;8.52;3.28;;;;;;;26.19;45.67;101981.19;5014097;28;20040;-61
2022/05/18 11:38:30;;;;;;;8.27;2.92;;;;;;;26.30;45.17;101976.84;5010534;28;20120;-61
2022/05/18 11:41:21;;;;;;;7.25;3.80;;;;;;;26.32;44.61;101983.03;5013587;28;20088;-60
2022/05/18 11:44:03;;;;;;;5.90;3.30;;;;;;;26.27;45.10;101971.81;5014471;28;20488;-61
2022/05/18 11:46:40;;;;;;;5.00;3.38;;;;;;;26.35;44.64;101967.31;5013442;28;20025;-62
2022/05/18 11:49:25;;;;;;;11.35;3.70;;;;;;;26.30;45.34;101968.31;5005994;28;20072;-62
2022/05/18 11:52:16;;;;;;;10.55;3.30;;;;;;;26.42;45.00;101968.47;4993829;28;20499;-62
2022/05/18 11:55:17;;;;;;;7.72;3.35;;;;;;;26.39;44.74;101972.00;5008704;28;20470;-62